Burnham, Illinois
Current Conditions -  °F | °C
As of 4:45 AM on Tuesday 21 Oct 2014 (Local Time) from KGYY Reporting Station
Overcast Overcast  
Wind Chill: 11°   Ceiling: 2300
Heat Index: 11°   Visibility: 10mi
Dew Point:   Wind: 14mph
Humidity: 82%   Direction: 360°N
Pressure: 30.04"   Gusts: NA
Location:  41.6563°N, 87.5444°W
Report Text: KGYY 210945Z 36012KT 10SM OVC023 11/08 A3004
Loading
Personal Weather Stations






























Interactive Weather Map
Tropical Storm Tracking
New forecast layout! Learn more

10-Day Weather Forecast

Advertisements
Track Severe Weather on mobile